Time;durP1;ratioP1;P1;durP2;ratioP2;P2;SDS_P1;SDS_P2;PMS_P1;PMS_P2;Temp;Humidity;BMP_temperature;BMP_pressure;BME280_temperature;BME280_humidity;BME280_pressure;Samples;Min_cycle;Max_cycle;Signal;HPM_P1;HPM_P2
2022/08/25 00:01:25;;;;;;;10.28;3.47;;;;;;;19.61;58.33;98394.50;1791893;79;21222;-66
2022/08/25 00:03:51;;;;;;;9.55;3.33;;;;;;;19.58;58.23;98393.25;1806883;79;20991;-66
2022/08/25 00:38:48;;;;;;;8.48;3.02;;;;;;;19.20;58.41;98395.42;1879651;76;26158;-66
2022/08/25 00:41:37;;;;;;;10.80;3.12;;;;;;;19.12;58.27;98394.38;1855522;77;20912;-66
2022/08/25 00:44:26;;;;;;;13.28;2.92;;;;;;;19.12;58.37;98392.25;1855487;77;20896;-66
2022/08/25 00:47:16;;;;;;;10.00;3.50;;;;;;;19.12;58.44;98390.90;1855417;77;20927;-66
2022/08/25 00:50:05;;;;;;;7.45;3.20;;;;;;;19.12;58.40;98393.02;1855470;77;20943;-66
2022/08/25 00:52:54;;;;;;;9.55;3.20;;;;;;;19.13;58.42;98394.63;1855471;77;20935;-66
2022/08/25 00:55:44;;;;;;;6.03;2.98;;;;;;;19.15;58.30;98393.51;1855516;77;20887;-66
2022/08/25 00:58:33;;;;;;;8.33;2.92;;;;;;;19.15;58.23;98394.28;1855523;77;21414;-66
2022/08/25 01:01:22;;;;;;;11.97;3.10;;;;;;;19.16;57.98;98392.36;1855456;77;21362;-66
2022/08/25 01:03:56;;;;;;;8.83;2.85;;;;;;;19.16;58.10;98385.58;1855581;77;21009;-66
2022/08/25 01:06:23;;;;;;;6.60;3.22;;;;;;;19.16;57.87;98384.22;1855449;77;20852;-66
2022/08/25 01:08:50;;;;;;;8.28;2.83;;;;;;;19.16;57.93;98380.94;1855609;77;20955;-65
2022/08/25 01:11:17;;;;;;;12.00;3.45;;;;;;;19.17;57.99;98379.03;1855567;77;21246;-65
2022/08/25 01:13:52;;;;;;;8.25;3.55;;;;;;;19.16;57.88;98381.50;1855517;77;20852;-66
2022/08/25 01:16:19;;;;;;;6.35;2.90;;;;;;;19.16;57.67;98382.86;1855585;77;20924;-66
2022/08/25 01:18:52;;;;;;;12.50;3.17;;;;;;;19.16;57.66;98375.52;1855535;77;20950;-66
2022/08/25 01:21:20;;;;;;;6.50;3.17;;;;;;;19.17;57.66;98384.45;1855785;77;20947;-66
2022/08/25 01:23:47;;;;;;;9.30;2.87;;;;;;;19.16;57.68;98386.94;1855619;77;21509;-66
2022/08/25 01:26:30;;;;;;;8.38;2.80;;;;;;;19.13;57.40;98382.41;1855394;77;20895;-66
2022/08/25 01:31:42;;;;;;;7.05;3.47;;;;;;;19.13;57.56;98388.39;1855576;77;20907;-65
2022/08/25 01:34:11;;;;;;;8.50;3.00;;;;;;;19.11;57.31;98383.87;1855467;77;20966;-66
2022/08/25 01:36:38;;;;;;;8.90;3.10;;;;;;;19.11;57.41;98380.59;1852404;77;21776;-66
2022/08/25 01:39:05;;;;;;;8.50;2.90;;;;;;;19.11;57.52;98383.31;1836927;76;20910;-65
2022/08/25 01:42:08;;;;;;;6.87;3.22;;;;;;;19.09;57.47;98385.58;1848363;76;20875;-66
2022/08/25 01:44:39;;;;;;;15.25;3.27;;;;;;;19.09;57.35;98384.77;1870576;76;20958;-66
2022/08/25 01:47:06;;;;;;;8.88;3.15;;;;;;;19.06;57.31;98384.87;1853210;76;21466;-66
2022/08/25 01:49:33;;;;;;;9.25;3.15;;;;;;;19.04;57.34;98388.50;1844927;77;21189;-66
2022/08/25 01:52:07;;;;;;;6.95;2.83;;;;;;;19.04;57.41;98389.86;1849989;77;21084;-66
2022/08/25 01:54:35;;;;;;;12.13;3.37;;;;;;;19.01;57.63;98385.09;1849368;77;21374;-65
2022/08/25 01:57:01;;;;;;;6.37;2.70;;;;;;;18.99;57.44;98387.34;1836554;77;20849;-66
2022/08/25 01:59:28;;;;;;;10.03;3.02;;;;;;;19.00;57.49;98382.16;1855148;76;21495;-66
2022/08/25 02:01:54;;;;;;;6.25;2.83;;;;;;;18.99;57.41;98377.84;1831828;77;21605;-66
2022/08/25 02:04:21;;;;;;;6.97;3.10;;;;;;;18.99;57.36;98376.49;1830940;77;20910;-66
2022/08/25 02:06:49;;;;;;;8.93;2.83;;;;;;;18.97;57.42;98377.39;1842393;77;20895;-66
2022/08/25 02:09:16;;;;;;;9.03;2.85;;;;;;;18.96;57.42;98375.03;1853433;76;20973;-66
2022/08/25 02:11:45;;;;;;;7.58;3.45;;;;;;;18.92;57.62;98372.17;1846033;76;20864;-66
2022/08/25 02:14:12;;;;;;;7.97;3.47;;;;;;;18.89;57.71;98372.83;1843234;77;21243;-65
2022/08/25 02:16:40;;;;;;;10.70;3.00;;;;;;;18.87;57.83;98365.59;1833890;77;20964;-65
2022/08/25 02:19:09;;;;;;;6.85;2.87;;;;;;;18.87;57.86;98364.80;1846252;77;20881;-66
2022/08/25 02:21:35;;;;;;;6.72;3.00;;;;;;;18.85;57.76;98363.78;1846437;77;20915;-65
2022/08/25 02:24:04;;;;;;;5.22;2.70;;;;;;;18.84;57.86;98364.13;1853200;77;20915;-65
2022/08/25 02:26:30;;;;;;;8.50;2.87;;;;;;;18.83;57.86;98365.25;1838464;77;21119;-65
2022/08/25 02:28:57;;;;;;;6.75;3.00;;;;;;;18.81;57.88;98362.87;1838995;76;20906;-65
2022/08/25 02:31:24;;;;;;;10.10;3.02;;;;;;;18.79;57.86;98362.98;1840784;77;20817;-65
2022/08/25 02:33:51;;;;;;;7.40;2.70;;;;;;;18.77;57.95;98363.88;1846690;77;20866;-66
2022/08/25 02:36:18;;;;;;;8.23;2.70;;;;;;;18.75;57.96;98364.75;1841884;77;20951;-65
2022/08/25 02:38:44;;;;;;;8.43;3.33;;;;;;;18.75;58.05;98357.41;1851939;77;21234;-66
2022/08/25 02:41:18;;;;;;;9.10;2.85;;;;;;;18.74;57.96;98358.56;1846563;77;20872;-66
2022/08/25 02:43:47;;;;;;;8.40;3.00;;;;;;;18.73;57.78;98361.03;1853916;77;20832;-66
2022/08/25 02:46:14;;;;;;;5.95;2.72;;;;;;;18.73;57.80;98362.38;1839869;77;21423;-66
2022/08/25 02:48:41;;;;;;;11.18;2.80;;;;;;;18.72;57.59;98355.95;1835424;77;20966;-66
2022/08/25 02:51:09;;;;;;;11.35;2.98;;;;;;;18.74;57.54;98357.76;1836774;77;21225;-66
2022/08/25 02:53:38;;;;;;;9.53;2.95;;;;;;;18.73;57.32;98355.60;1849324;77;20875;-66
2022/08/25 02:56:08;;;;;;;6.12;2.77;;;;;;;18.75;57.42;98362.84;1847736;77;20876;-66
2022/08/25 02:58:36;;;;;;;9.23;2.80;;;;;;;18.75;57.63;98364.20;1837604;77;20920;-66
2022/08/25 03:01:02;;;;;;;5.35;2.62;;;;;;;18.74;57.67;98358.56;1843203;77;20901;-66
2022/08/25 03:03:29;;;;;;;9.98;3.05;;;;;;;18.74;57.43;98362.63;1836381;77;21058;-66
2022/08/25 03:05:56;;;;;;;10.65;2.85;;;;;;;18.73;57.36;98364.30;1840633;76;20921;-66
2022/08/25 03:08:23;;;;;;;10.43;3.75;;;;;;;18.71;57.31;98363.28;1843956;77;21020;-66
2022/08/25 03:10:50;;;;;;;12.33;3.05;;;;;;;18.70;57.32;98360.92;1843293;77;21469;-66
2022/08/25 03:13:16;;;;;;;8.83;3.17;;;;;;;18.68;57.51;98366.66;1841636;77;20911;-66
2022/08/25 03:15:44;;;;;;;7.65;2.90;;;;;;;18.67;57.53;98368.36;1840517;77;21099;-66
2022/08/25 03:18:11;;;;;;;4.42;2.58;;;;;;;18.66;57.55;98374.90;1844870;77;20936;-66
2022/08/25 03:20:39;;;;;;;11.25;3.10;;;;;;;18.64;57.81;98376.59;1845825;77;20980;-66
2022/08/25 03:23:05;;;;;;;10.93;3.05;;;;;;;18.63;58.04;98376.94;1845481;77;20960;-66
2022/08/25 03:28:18;;;;;;;7.72;3.75;;;;;;;18.55;58.43;98365.03;1842276;76;21133;-66
2022/08/25 03:30:44;;;;;;;8.98;2.85;;;;;;;18.52;58.70;98373.83;1835460;77;20861;-66
2022/08/25 03:33:11;;;;;;;7.03;3.00;;;;;;;18.52;58.82;98364.34;1842311;77;21355;-66
2022/08/25 03:35:38;;;;;;;7.75;3.50;;;;;;;18.50;59.09;98365.23;1839365;77;21385;-66
2022/08/25 03:38:04;;;;;;;11.78;3.85;;;;;;;18.49;59.33;98367.70;1840702;77;20883;-66
2022/08/25 03:40:31;;;;;;;11.10;3.62;;;;;;;18.48;59.46;98365.34;1843891;77;21114;-66
2022/08/25 03:42:58;;;;;;;9.63;3.30;;;;;;;18.45;60.18;98362.70;1832148;77;20955;-66
2022/08/25 03:45:24;;;;;;;9.65;3.50;;;;;;;18.44;59.82;98365.20;1847786;76;20880;-66
2022/08/25 03:47:51;;;;;;;10.85;3.87;;;;;;;18.42;59.83;98366.06;1846442;77;20892;-66
2022/08/25 03:50:19;;;;;;;11.68;3.37;;;;;;;18.41;59.87;98364.49;1841764;77;20974;-66
2022/08/25 03:52:53;;;;;;;13.65;3.52;;;;;;;18.40;59.91;98362.89;1838687;77;21123;-66
2022/08/25 03:55:20;;;;;;;9.43;3.30;;;;;;;18.38;60.08;98367.30;1844485;77;20912;-66
2022/08/25 03:57:47;;;;;;;8.28;3.33;;;;;;;18.39;60.12;98362.68;1848201;77;20955;-66
2022/08/25 04:00:14;;;;;;;7.92;3.00;;;;;;;18.39;60.20;98366.75;1851525;77;20861;-66
2022/08/25 04:02:41;;;;;;;6.75;3.02;;;;;;;18.39;60.40;98366.16;1845778;77;20859;-66
2022/08/25 04:05:09;;;;;;;12.80;3.35;;;;;;;18.38;60.44;98366.50;1841678;76;21189;-66
2022/08/25 04:07:35;;;;;;;12.68;3.40;;;;;;;18.38;60.58;98369.22;1840363;76;20851;-66
2022/08/25 04:10:05;;;;;;;7.83;3.27;;;;;;;18.41;60.52;98373.98;1839314;77;20910;-66
2022/08/25 04:12:32;;;;;;;10.60;3.10;;;;;;;18.41;60.69;98367.20;1847944;77;20960;-66
2022/08/25 04:14:58;;;;;;;9.78;2.83;;;;;;;18.41;60.75;98375.34;1850158;77;20945;-66
2022/08/25 04:17:25;;;;;;;12.15;3.75;;;;;;;18.41;60.69;98373.42;1835122;77;21027;-66
2022/08/25 04:19:51;;;;;;;10.23;3.47;;;;;;;18.42;60.71;98375.00;1841701;77;21080;-66
2022/08/25 04:22:18;;;;;;;11.05;4.10;;;;;;;18.44;60.96;98372.74;1842088;77;20823;-66
2022/08/25 04:24:45;;;;;;;12.80;4.28;;;;;;;18.46;61.04;98367.03;1837103;77;20914;-66
2022/08/25 04:27:11;;;;;;;13.15;3.92;;;;;;;18.48;60.92;98370.20;1839393;77;20984;-66
2022/08/25 04:29:38;;;;;;;11.20;3.92;;;;;;;18.50;61.09;98369.30;1835354;76;21287;-66
2022/08/25 04:32:04;;;;;;;13.60;4.15;;;;;;;18.52;61.05;98364.34;1849303;76;21362;-66
2022/08/25 04:34:31;;;;;;;13.72;4.20;;;;;;;18.57;61.16;98367.41;1849073;77;20911;-66
2022/08/25 04:37:00;;;;;;;8.63;4.40;;;;;;;18.60;61.14;98368.11;1836427;76;20866;-66
2022/08/25 04:39:27;;;;;;;7.37;3.95;;;;;;;18.63;61.00;98360.08;1838170;77;21474;-66
2022/08/25 04:41:54;;;;;;;13.25;4.28;;;;;;;18.66;61.06;98358.62;1841296;76;21366;-66
2022/08/25 04:44:20;;;;;;;10.50;3.85;;;;;;;18.69;61.23;98357.41;1837045;77;20864;-66
2022/08/25 04:46:48;;;;;;;9.95;3.90;;;;;;;18.72;61.37;98358.10;1838923;77;21033;-66
2022/08/25 04:49:15;;;;;;;12.05;3.87;;;;;;;18.75;61.14;98353.34;1838426;76;21026;-66
2022/08/25 04:51:41;;;;;;;10.08;4.72;;;;;;;18.80;61.29;98357.20;1837430;76;20851;-66
2022/08/25 04:54:10;;;;;;;9.33;3.40;;;;;;;18.86;61.23;98353.73;1857985;76;21152;-66
2022/08/25 04:56:40;;;;;;;9.15;4.05;;;;;;;18.90;61.34;98350.01;1846491;77;20889;-66
2022/08/25 04:59:09;;;;;;;15.20;4.78;;;;;;;18.93;61.36;98354.77;1846175;77;20856;-66
2022/08/25 05:01:37;;;;;;;14.90;5.35;;;;;;;18.99;61.10;98354.78;1838153;77;20914;-67
2022/08/25 05:04:05;;;;;;;13.72;5.78;;;;;;;19.04;61.03;98355.92;1837877;77;20994;-66
2022/08/25 05:06:32;;;;;;;19.02;8.45;;;;;;;19.10;61.07;98355.16;1860227;76;21281;-66
2022/08/25 05:08:58;;;;;;;15.35;8.05;;;;;;;19.16;60.99;98355.70;1846229;76;21049;-66
2022/08/25 05:11:31;;;;;;;15.30;7.62;;;;;;;19.24;61.15;98353.47;1843266;77;20945;-66
2022/08/25 05:14:00;;;;;;;15.03;7.47;;;;;;;19.31;61.24;98353.70;1835726;76;20979;-66
2022/08/25 05:16:26;;;;;;;14.18;6.28;;;;;;;19.38;61.12;98345.81;1852650;77;21021;-66
2022/08/25 05:18:53;;;;;;;12.13;5.90;;;;;;;19.44;61.03;98344.45;1836262;77;21261;-65
2022/08/25 05:21:25;;;;;;;14.30;6.47;;;;;;;19.50;61.06;98340.39;1832674;77;21382;-66
2022/08/25 05:23:57;;;;;;;12.78;5.28;;;;;;;19.56;61.29;98344.45;1838163;76;21370;-66
2022/08/25 05:26:25;;;;;;;10.50;4.65;;;;;;;19.64;61.01;98346.28;1847966;77;20926;-67
2022/08/25 05:28:53;;;;;;;13.98;4.90;;;;;;;19.71;61.25;98345.14;1842464;76;20928;-67
2022/08/25 05:31:21;;;;;;;11.95;5.87;;;;;;;19.77;60.88;98343.20;1821857;76;21919;-65
2022/08/25 05:33:48;;;;;;;11.12;5.17;;;;;;;19.85;60.71;98346.94;1831566;77;21485;-66
2022/08/25 05:36:15;;;;;;;10.63;5.30;;;;;;;19.91;60.38;98346.91;1804222;77;20899;-66
2022/08/25 05:38:42;;;;;;;14.18;4.67;;;;;;;19.98;60.20;98344.41;1835510;77;20954;-66
2022/08/25 05:41:14;;;;;;;10.78;4.15;;;;;;;20.08;60.23;98353.47;1823556;78;20924;-67
2022/08/25 05:43:43;;;;;;;12.82;4.10;;;;;;;20.17;60.00;98350.59;1823322;77;21200;-66
2022/08/25 05:46:12;;;;;;;9.10;3.65;;;;;;;20.24;59.83;98354.36;1823933;77;20988;-66
2022/08/25 05:48:39;;;;;;;12.75;3.47;;;;;;;20.32;59.73;98355.36;1820034;77;20910;-66
2022/08/25 05:51:09;;;;;;;13.53;3.47;;;;;;;20.40;59.03;98354.41;1828540;77;20969;-66
2022/08/25 05:53:36;;;;;;;12.85;3.90;;;;;;;20.47;58.82;98357.33;1807367;78;21065;-67
2022/08/25 05:56:03;;;;;;;14.68;3.77;;;;;;;20.58;58.65;98359.01;1821883;78;21375;-67
2022/08/25 05:58:30;;;;;;;9.68;3.60;;;;;;;20.65;58.63;98357.84;1822792;78;21011;-67
2022/08/25 06:02:39;;;;;;;11.38;3.80;;;;;;;20.73;58.55;98356.88;1820741;78;21460;-66
2022/08/25 06:03:26;;;;;;;12.18;3.62;;;;;;;20.82;58.20;98352.10;1817887;77;20997;-66
2022/08/25 06:05:53;;;;;;;10.55;3.83;;;;;;;20.91;57.89;98358.97;1831637;77;21054;-65
2022/08/25 06:08:19;;;;;;;12.65;3.60;;;;;;;20.99;57.93;98358.56;1841731;77;21739;-68
2022/08/25 06:10:52;;;;;;;10.45;3.20;;;;;;;21.09;57.73;98359.45;1812053;77;21609;-67
2022/08/25 06:13:19;;;;;;;10.75;3.58;;;;;;;21.19;58.02;98361.67;1829470;76;20966;-67
2022/08/25 06:15:45;;;;;;;12.55;3.25;;;;;;;21.29;57.12;98360.36;1844808;76;20963;-65
2022/08/25 06:18:12;;;;;;;14.13;3.55;;;;;;;21.38;56.03;98363.13;1836720;76;21084;-66
2022/08/25 06:20:39;;;;;;;9.70;3.50;;;;;;;21.47;56.36;98367.03;1807379;78;21124;-67
2022/08/25 06:23:05;;;;;;;9.95;3.22;;;;;;;21.56;56.13;98362.98;1821185;76;20959;-67
2022/08/25 06:25:32;;;;;;;7.80;2.65;;;;;;;21.66;55.88;98363.82;1824403;77;21476;-67
2022/08/25 06:27:59;;;;;;;5.97;2.85;;;;;;;21.77;55.26;98369.51;1820182;77;21050;-65
2022/08/25 06:30:26;;;;;;;9.55;3.33;;;;;;;21.86;54.67;98369.37;1811389;77;21113;-67
2022/08/25 06:32:53;;;;;;;14.70;3.27;;;;;;;21.93;54.22;98373.62;1833309;77;21115;-67
2022/08/25 06:35:20;;;;;;;9.45;3.27;;;;;;;22.00;54.70;98376.52;1839650;76;21474;-68
2022/08/25 06:37:46;;;;;;;12.78;2.95;;;;;;;22.08;53.49;98375.50;1829164;76;21078;-66
2022/08/25 06:40:15;;;;;;;10.55;3.17;;;;;;;22.16;53.69;98377.26;1834980;77;20971;-64
2022/08/25 06:42:44;;;;;;;7.83;2.50;;;;;;;22.26;54.20;98375.31;1829434;77;21073;-66
2022/08/25 06:45:11;;;;;;;7.53;2.90;;;;;;;22.36;53.43;98377.48;1822631;77;21161;-66
2022/08/25 06:47:44;;;;;;;9.75;2.67;;;;;;;22.45;52.92;98373.97;1814220;77;21419;-66
2022/08/25 06:50:10;;;;;;;12.45;2.90;;;;;;;22.55;52.83;98376.14;1832522;76;21089;-67
2022/08/25 06:52:37;;;;;;;8.25;2.98;;;;;;;22.66;51.68;98375.80;1830011;77;21084;-66
2022/08/25 06:55:10;;;;;;;6.75;2.80;;;;;;;22.74;50.32;98379.46;1794182;77;21722;-67
2022/08/25 06:57:38;;;;;;;6.78;2.85;;;;;;;22.81;50.41;98383.13;1816439;77;22178;-66
2022/08/25 07:00:09;;;;;;;10.43;3.15;;;;;;;22.88;49.43;98383.84;1788797;78;21545;-67
2022/08/25 07:02:37;;;;;;;9.45;3.15;;;;;;;22.95;48.76;98386.13;1807522;77;20991;-66
2022/08/25 07:05:05;;;;;;;10.98;3.15;;;;;;;23.02;49.00;98380.80;1810227;77;21066;-65
2022/08/25 07:07:32;;;;;;;7.83;2.90;;;;;;;23.10;48.87;98386.59;1775522;77;21518;-64
2022/08/25 07:10:01;;;;;;;8.88;2.77;;;;;;;23.19;48.74;98379.55;1802437;77;21261;-66
2022/08/25 07:12:29;;;;;;;8.43;2.85;;;;;;;23.28;48.61;98382.03;1799019;78;20922;-66
2022/08/25 07:14:55;;;;;;;8.50;2.70;;;;;;;23.39;48.47;98381.69;1785525;78;21070;-66
2022/08/25 07:17:22;;;;;;;10.03;3.02;;;;;;;23.47;47.23;98379.27;1791624;77;21051;-57
2022/08/25 07:19:49;;;;;;;6.47;3.15;;;;;;;23.56;46.66;98380.61;1801231;77;21144;-64
2022/08/25 07:22:15;;;;;;;6.58;2.60;;;;;;;23.63;46.77;98381.30;1814596;77;21387;-66
2022/08/25 07:24:42;;;;;;;16.12;2.98;;;;;;;23.72;47.30;98377.72;1782882;77;21094;-67
2022/08/25 07:27:08;;;;;;;12.07;2.90;;;;;;;23.81;46.06;98379.65;1765588;79;21028;-69
2022/08/25 07:29:37;;;;;;;8.95;2.70;;;;;;;23.88;45.10;98368.81;1803176;77;21496;-68
2022/08/25 07:32:05;;;;;;;14.25;3.08;;;;;;;23.94;45.43;98368.70;1810590;77;21130;-65
2022/08/25 07:37:18;;;;;;;12.05;3.58;;;;;;;24.10;45.29;98374.81;1812912;77;21141;-65
2022/08/25 07:39:45;;;;;;;10.55;3.15;;;;;;;24.21;45.64;98368.91;1804673;77;21077;-66
2022/08/25 07:42:26;;;;;;;8.08;3.15;;;;;;;24.31;45.45;98372.95;1739910;81;20951;-65
2022/08/25 07:44:53;;;;;;;12.50;3.27;;;;;;;24.39;45.16;98374.06;1700403;83;21656;-66
2022/08/25 07:47:20;;;;;;;7.35;3.05;;;;;;;24.48;44.91;98372.40;1738537;80;21113;-66
2022/08/25 07:49:49;;;;;;;10.53;3.25;;;;;;;24.57;44.55;98374.84;1739464;80;20987;-66
2022/08/25 07:52:16;;;;;;;9.45;3.30;;;;;;;24.64;44.06;98367.50;1734185;80;21585;-66
2022/08/25 07:54:42;;;;;;;9.35;3.35;;;;;;;24.73;43.76;98369.97;1713341;81;21102;-65
2022/08/25 07:57:09;;;;;;;11.53;3.50;;;;;;;24.80;44.45;98373.59;1744013;80;21628;-65
2022/08/25 07:59:42;;;;;;;9.05;3.47;;;;;;;24.88;45.15;98373.09;1729155;81;21194;-64
2022/08/25 08:02:10;;;;;;;10.03;2.58;;;;;;;25.10;45.45;98370.80;1700730;82;21135;-67
2022/08/25 08:04:37;;;;;;;12.73;3.47;;;;;;;25.10;45.45;98370.80;1709295;83;21134;-65
2022/08/25 08:07:05;;;;;;;12.63;2.95;;;;;;;25.22;44.82;98377.95;1734769;81;20928;-66
2022/08/25 08:09:32;;;;;;;12.78;3.40;;;;;;;25.29;44.20;98371.17;1739954;80;21006;-64
2022/08/25 08:12:06;;;;;;;9.15;3.00;;;;;;;25.33;43.76;98368.66;1695931;82;21139;-65
2022/08/25 08:14:33;;;;;;;11.53;3.80;;;;;;;25.40;43.64;98368.73;1693516;83;20979;-64
2022/08/25 08:17:06;;;;;;;11.25;3.27;;;;;;;25.49;44.14;98371.97;1692573;82;21132;-65
2022/08/25 08:19:34;;;;;;;8.90;3.20;;;;;;;25.59;44.73;98367.16;1730785;81;20989;-64
2022/08/25 08:22:02;;;;;;;18.48;3.10;;;;;;;25.69;44.46;98370.58;1742457;80;21077;-65
2022/08/25 08:24:30;;;;;;;16.48;3.52;;;;;;;25.77;44.18;98368.08;1729885;80;21117;-65
2022/08/25 08:26:57;;;;;;;9.53;3.80;;;;;;;25.88;44.18;98366.00;1739454;79;21086;-67
2022/08/25 08:29:26;;;;;;;14.00;3.40;;;;;;;25.93;42.78;98365.65;1743086;80;20967;-64
2022/08/25 08:31:53;;;;;;;9.58;3.17;;;;;;;25.90;43.86;98370.52;1749922;80;21034;-64
2022/08/25 08:34:19;;;;;;;7.50;3.35;;;;;;;25.93;43.04;98365.65;1728215;80;21653;-65
2022/08/25 08:36:46;;;;;;;14.13;3.45;;;;;;;25.96;43.12;98371.14;1729728;81;21799;-64
2022/08/25 08:39:12;;;;;;;10.18;3.47;;;;;;;26.01;43.79;98368.05;1723230;81;21499;-66
2022/08/25 08:42:17;;;;;;;12.85;3.33;;;;;;;26.14;43.15;98358.95;1732798;81;21078;-65
2022/08/25 08:44:57;;;;;;;8.88;3.02;;;;;;;26.17;42.75;98360.91;1725713;80;21534;-65
2022/08/25 08:48:00;;;;;;;13.18;3.12;;;;;;;26.21;42.57;98357.62;1732292;80;21087;-62
2022/08/25 08:50:33;;;;;;;11.85;3.30;;;;;;;26.35;42.30;98356.31;1737947;80;21105;-65
2022/08/25 08:53:08;;;;;;;9.00;3.30;;;;;;;26.56;41.14;98356.98;1724479;80;20998;-65
2022/08/25 08:55:56;;;;;;;15.30;3.50;;;;;;;26.70;40.99;98355.09;1703854;80;21458;-68
2022/08/25 08:58:41;;;;;;;9.83;3.98;;;;;;;26.85;40.65;98353.97;1727393;80;21004;-66
2022/08/25 09:01:12;;;;;;;13.98;3.20;;;;;;;26.96;38.92;98351.27;1728727;80;21066;-65
2022/08/25 09:03:52;;;;;;;9.05;2.77;;;;;;;27.00;39.00;98357.55;1722473;80;21068;-63
2022/08/25 09:06:30;;;;;;;9.40;3.00;;;;;;;27.09;39.77;98348.33;1718481;80;21532;-68
2022/08/25 09:08:58;;;;;;;8.03;3.02;;;;;;;27.22;38.80;98348.75;1730192;80;21045;-65
2022/08/25 09:11:39;;;;;;;12.82;3.27;;;;;;;27.35;38.27;98341.09;1714505;82;21433;-64
2022/08/25 09:14:31;;;;;;;15.40;3.30;;;;;;;27.46;37.18;98341.14;1729805;80;21105;-65
2022/08/25 09:17:12;;;;;;;10.72;3.33;;;;;;;27.57;37.18;98341.92;1730450;80;21167;-65
2022/08/25 09:20:08;;;;;;;11.75;3.27;;;;;;;27.69;37.29;98342.32;1702241;82;21711;-64
2022/08/25 09:23:01;;;;;;;10.68;3.02;;;;;;;27.84;36.53;98345.05;1722620;80;21073;-66
2022/08/25 09:25:44;;;;;;;9.13;3.30;;;;;;;27.97;36.43;98344.83;1717355;81;21011;-64
2022/08/25 09:28:32;;;;;;;10.23;3.25;;;;;;;28.07;34.61;98337.97;1745358;80;21651;-66
2022/08/25 09:31:06;;;;;;;14.63;3.80;;;;;;;28.15;34.36;98344.22;1741514;80;21105;-66
2022/08/25 09:33:33;;;;;;;12.37;3.35;;;;;;;28.24;34.55;98331.59;1725013;80;20936;-66
2022/08/25 09:36:00;;;;;;;9.75;3.45;;;;;;;28.34;33.92;98339.05;1735208;81;20968;-63
2022/08/25 09:38:31;;;;;;;15.03;3.25;;;;;;;28.42;33.83;98341.19;1737437;80;21054;-65
2022/08/25 09:40:59;;;;;;;5.97;2.72;;;;;;;28.50;33.37;98340.58;1741282;82;21189;-62
2022/08/25 09:43:43;;;;;;;11.80;2.90;;;;;;;28.58;33.67;98343.48;1742798;81;21479;-64
2022/08/25 09:46:25;;;;;;;14.77;3.40;;;;;;;28.72;33.56;98344.81;1724433;81;21530;-64
2022/08/25 09:48:54;;;;;;;13.83;3.30;;;;;;;28.81;32.75;98337.69;1746257;80;21761;-64
2022/08/25 09:51:34;;;;;;;11.68;3.60;;;;;;;28.91;31.60;98326.41;1733145;80;20955;-65
2022/08/25 09:54:19;;;;;;;15.78;3.60;;;;;;;28.94;31.33;98332.50;1727313;80;21084;-69
2022/08/25 09:56:58;;;;;;;7.28;2.83;;;;;;;28.97;30.66;98331.70;1727161;80;21238;-66
2022/08/25 09:59:29;;;;;;;10.78;2.87;;;;;;;28.95;29.85;98334.05;1731208;80;21079;-64
2022/08/25 10:01:58;;;;;;;11.18;3.17;;;;;;;28.91;30.74;98331.92;1720463;80;20995;-62
2022/08/25 10:04:33;;;;;;;9.23;2.72;;;;;;;28.93;30.08;98332.30;1713699;80;20966;-65
2022/08/25 10:07:03;;;;;;;13.03;2.90;;;;;;;29.03;30.50;98330.87;1676363;83;21683;-63
2022/08/25 10:09:35;;;;;;;14.98;2.72;;;;;;;29.11;29.07;98317.83;1720516;81;21184;-66
2022/08/25 10:12:10;;;;;;;6.90;2.90;;;;;;;29.14;30.03;98326.64;1712577;81;21107;-64
2022/08/25 10:14:39;;;;;;;13.20;3.05;;;;;;;29.24;30.05;98320.89;1713081;81;21498;-65
2022/08/25 10:17:24;;;;;;;5.30;2.35;;;;;;;29.35;29.38;98321.00;1720960;81;21055;-63
2022/08/25 10:20:14;;;;;;;11.93;2.85;;;;;;;29.37;29.50;98326.13;1685808;82;21090;-66
2022/08/25 10:22:42;;;;;;;13.50;2.77;;;;;;;29.34;28.92;98312.55;1700338;81;21617;-64
2022/08/25 10:25:12;;;;;;;9.85;2.90;;;;;;;29.29;29.69;98316.33;1707779;81;21022;-64
2022/08/25 10:28:11;;;;;;;11.68;2.40;;;;;;;29.33;28.93;98316.48;1701794;82;21526;-65
2022/08/25 10:31:13;;;;;;;11.55;2.72;;;;;;;29.36;29.40;98315.69;1703782;81;21107;-65
2022/08/25 10:33:57;;;;;;;8.30;2.75;;;;;;;29.44;29.21;98302.63;1686389;82;21091;-68
2022/08/25 10:36:44;;;;;;;15.60;2.70;;;;;;;29.46;28.53;98301.03;1701113;80;21239;-68
2022/08/25 10:39:40;;;;;;;11.38;2.75;;;;;;;29.45;28.40;98304.97;1685623;83;21131;-66
2022/08/25 10:42:21;;;;;;;9.95;2.40;;;;;;;29.48;27.96;98306.92;1686158;82;21115;-66
2022/08/25 10:48:08;;;;;;;14.78;2.77;;;;;;;29.40;27.67;98292.19;1691933;81;22464;-68
2022/08/25 10:50:46;;;;;;;12.78;2.77;;;;;;;29.32;27.84;98295.63;1702633;82;21198;-66
2022/08/25 10:53:44;;;;;;;10.55;3.10;;;;;;;29.22;27.69;98295.11;1702986;81;21542;-66
2022/08/25 10:56:19;;;;;;;8.28;2.00;;;;;;;29.18;28.05;98297.12;1708924;82;21075;-71
2022/08/25 10:59:19;;;;;;;7.60;2.45;;;;;;;29.21;27.96;98293.53;1689508;83;21673;-66
2022/08/25 11:02:26;;;;;;;10.85;2.75;;;;;;;29.33;29.09;98292.25;1702185;82;21083;-67
2022/08/25 11:05:09;;;;;;;8.25;2.60;;;;;;;29.48;28.00;98286.81;1668018;83;21299;-67
2022/08/25 11:07:43;;;;;;;9.30;2.40;;;;;;;29.59;28.58;98284.14;1688585;82;21121;-68
2022/08/25 11:10:25;;;;;;;8.05;2.67;;;;;;;29.73;28.70;98284.00;1700104;81;21054;-69
2022/08/25 11:12:59;;;;;;;11.08;2.60;;;;;;;29.92;28.83;98274.95;1688057;83;21064;-66
2022/08/25 11:15:33;;;;;;;7.25;2.80;;;;;;;30.08;28.20;98271.02;1704653;82;21025;-68
2022/08/25 11:18:08;;;;;;;11.70;2.60;;;;;;;30.16;28.22;98270.55;1694830;82;21249;-68
2022/08/25 11:20:41;;;;;;;10.20;2.80;;;;;;;30.22;27.17;98261.22;1680875;82;21182;-66
2022/08/25 11:23:13;;;;;;;8.83;2.25;;;;;;;30.27;27.41;98257.38;1672160;82;21134;-67
2022/08/25 11:25:52;;;;;;;7.65;2.20;;;;;;;30.37;27.79;98251.56;1715199;81;21136;-68
2022/08/25 11:29:12;;;;;;;9.85;2.72;;;;;;;30.52;27.74;98248.02;1750431;81;21000;-67
2022/08/25 11:31:47;;;;;;;11.33;2.50;;;;;;;30.69;26.78;98244.98;1732368;80;21039;-68
2022/08/25 11:34:14;;;;;;;9.50;2.42;;;;;;;30.87;26.29;98245.52;1742468;80;21187;-69
2022/08/25 11:36:45;;;;;;;8.35;2.08;;;;;;;30.97;25.95;98248.73;1748160;80;21110;-69
2022/08/25 11:39:26;;;;;;;6.75;2.45;;;;;;;31.07;25.50;98245.02;1733238;80;21077;-67
2022/08/25 11:42:26;;;;;;;4.67;2.30;;;;;;;31.10;24.79;98248.94;1732984;80;21141;-68
2022/08/25 11:45:43;;;;;;;5.65;1.90;;;;;;;31.19;25.96;98241.48;1717429;80;21246;-68
2022/08/25 11:48:37;;;;;;;7.45;2.10;;;;;;;31.42;24.72;98232.57;1713838;82;21003;-68
2022/08/25 11:51:13;;;;;;;6.10;2.08;;;;;;;31.58;24.87;98233.33;1717900;82;20967;-68
2022/08/25 11:53:41;;;;;;;9.60;1.92;;;;;;;31.70;24.70;98236.86;1715518;82;21114;-67
2022/08/25 11:56:11;;;;;;;7.58;2.17;;;;;;;31.81;24.56;98237.43;1742167;80;21133;-67
2022/08/25 11:58:44;;;;;;;7.70;2.25;;;;;;;31.91;25.17;98233.68;1735844;81;21243;-67
2022/08/25 12:01:41;;;;;;;9.33;2.00;;;;;;;32.06;24.70;98228.64;1741699;80;21513;-67
2022/08/25 12:04:36;;;;;;;6.00;1.90;;;;;;;32.16;23.74;98227.05;1662492;81;21046;-69
2022/08/25 12:07:13;;;;;;;12.30;2.20;;;;;;;32.25;23.92;98222.31;1724137;80;21484;-68
2022/08/25 12:09:55;;;;;;;15.13;2.52;;;;;;;32.25;23.59;98222.31;1676656;83;21176;-67
2022/08/25 12:12:40;;;;;;;7.08;2.20;;;;;;;32.19;23.58;98213.73;1705725;82;21122;-66
2022/08/25 12:15:29;;;;;;;9.25;2.02;;;;;;;32.22;23.86;98215.63;1694096;81;20987;-67
2022/08/25 12:18:23;;;;;;;12.15;2.05;;;;;;;32.41;23.90;98212.05;1685417;81;21178;-68
2022/08/25 12:21:00;;;;;;;7.28;2.08;;;;;;;32.55;23.54;98215.77;1700855;80;21996;-67
2022/08/25 12:24:04;;;;;;;5.42;1.87;;;;;;;32.68;23.51;98210.48;1702313;81;21042;-67
2022/08/25 12:26:48;;;;;;;5.03;1.75;;;;;;;32.70;23.36;98208.06;1683286;83;21351;-66
2022/08/25 12:29:42;;;;;;;8.38;1.72;;;;;;;32.83;24.06;98210.34;1667662;84;21084;-67
2022/08/25 12:32:29;;;;;;;7.22;1.65;;;;;;;33.01;23.67;98209.90;1670962;83;21754;-68
2022/08/25 12:35:23;;;;;;;8.10;1.62;;;;;;;33.19;22.58;98201.93;1663678;83;21085;-65
2022/08/25 12:38:08;;;;;;;6.62;1.45;;;;;;;33.28;22.75;98204.86;1683079;82;21114;-65
2022/08/25 12:40:40;;;;;;;7.42;1.60;;;;;;;33.44;22.87;98204.08;1668699;83;21120;-66